Terminal Aerodrome Forecast
Issued by NWS

Current Version | Previous Version | Text Only | Print | Product List | Glossary On
Versions: 1 2 3 4 5 6 7 8 9 10 11 12 13 14
000
FTUS41 KCLE 280500
TAFFDY
TAF
KFDY 280538Z 2806/2906 28012KT P6SM SCT006 OVC018
      TEMPO 2806/2808 3SM -SHSN OVC006
     FM281600 31010KT P6SM OVC025
     FM282200 30010KT P6SM BKN250=

USA.gov is the U.S. government's official web portal to all federal, state and local government web resources and services.